sensor_id;sensor_type;location;lat;lon;timestamp;pressure;altitude;pressure_sealevel;temperature;humidity
7264;BME280;3673;52.480;13.348;2022-10-04T00:02:18;101697.41;;;17.51;64.14
7264;BME280;3673;52.480;13.348;2022-10-04T00:04:53;101699.53;;;17.25;64.18
7264;BME280;3673;52.480;13.348;2022-10-04T00:07:27;101701.00;;;17.49;63.42
7264;BME280;3673;52.480;13.348;2022-10-04T00:09:59;101706.75;;;17.13;64.78
7264;BME280;3673;52.480;13.348;2022-10-04T00:12:31;101706.22;;;17.52;63.82
7264;BME280;3673;52.480;13.348;2022-10-04T00:15:04;101698.38;;;17.47;63.72
7264;BME280;3673;52.480;13.348;2022-10-04T00:17:32;101702.13;;;17.30;63.48
7264;BME280;3673;52.480;13.348;2022-10-04T00:20:54;101701.63;;;16.99;64.74
7264;BME280;3673;52.480;13.348;2022-10-04T00:23:25;101706.47;;;17.37;63.80
7264;BME280;3673;52.480;13.348;2022-10-04T00:25:55;101700.88;;;17.61;63.30
7264;BME280;3673;52.480;13.348;2022-10-04T00:28:42;101700.25;;;17.41;63.21
7264;BME280;3673;52.480;13.348;2022-10-04T00:31:22;101712.75;;;17.27;63.75
7264;BME280;3673;52.480;13.348;2022-10-04T00:33:57;101700.41;;;17.27;64.07
7264;BME280;3673;52.480;13.348;2022-10-04T00:36:46;101696.75;;;17.37;63.28
7264;BME280;3673;52.480;13.348;2022-10-04T00:39:38;101706.28;;;16.80;64.22
7264;BME280;3673;52.480;13.348;2022-10-04T00:42:44;101713.72;;;17.18;63.85
7264;BME280;3673;52.480;13.348;2022-10-04T00:45:27;101702.84;;;17.42;62.69
7264;BME280;3673;52.480;13.348;2022-10-04T00:48:34;101709.28;;;17.23;63.42
7264;BME280;3673;52.480;13.348;2022-10-04T00:51:22;101704.94;;;17.18;63.71
7264;BME280;3673;52.480;13.348;2022-10-04T00:54:00;101705.88;;;17.12;62.93
7264;BME280;3673;52.480;13.348;2022-10-04T00:56:39;101704.19;;;17.07;63.08
7264;BME280;3673;52.480;13.348;2022-10-04T00:59:24;101696.81;;;17.31;62.58
7264;BME280;3673;52.480;13.348;2022-10-04T01:01:57;101696.47;;;16.90;63.80
7264;BME280;3673;52.480;13.348;2022-10-04T01:04:36;101696.97;;;17.21;62.87
7264;BME280;3673;52.480;13.348;2022-10-04T01:07:06;101693.28;;;17.32;62.77
7264;BME280;3673;52.480;13.348;2022-10-04T01:09:44;101693.31;;;17.31;62.88
7264;BME280;3673;52.480;13.348;2022-10-04T01:12:24;101705.75;;;17.21;62.69
7264;BME280;3673;52.480;13.348;2022-10-04T01:15:02;101698.88;;;17.10;63.50
7264;BME280;3673;52.480;13.348;2022-10-04T01:17:32;101698.53;;;17.37;62.55
7264;BME280;3673;52.480;13.348;2022-10-04T01:19:59;101695.00;;;17.36;62.48
7264;BME280;3673;52.480;13.348;2022-10-04T01:22:37;101696.19;;;17.13;63.26
7264;BME280;3673;52.480;13.348;2022-10-04T01:25:06;101696.50;;;16.87;63.71
7264;BME280;3673;52.480;13.348;2022-10-04T01:27:36;101694.38;;;17.16;63.26
7264;BME280;3673;52.480;13.348;2022-10-04T01:30:09;101698.47;;;17.38;62.26
7264;BME280;3673;52.480;13.348;2022-10-04T01:32:37;101698.06;;;17.02;63.10
7264;BME280;3673;52.480;13.348;2022-10-04T01:35:07;101679.13;;;17.36;62.50
7264;BME280;3673;52.480;13.348;2022-10-04T01:37:37;101685.81;;;16.96;63.78
7264;BME280;3673;52.480;13.348;2022-10-04T01:40:07;101693.75;;;16.97;62.89
7264;BME280;3673;52.480;13.348;2022-10-04T01:42:40;101683.88;;;17.10;62.77
7264;BME280;3673;52.480;13.348;2022-10-04T01:45:15;101688.53;;;16.90;63.68
7264;BME280;3673;52.480;13.348;2022-10-04T01:47:51;101673.25;;;17.13;62.15
7264;BME280;3673;52.480;13.348;2022-10-04T01:50:26;101698.00;;;17.11;62.13
7264;BME280;3673;52.480;13.348;2022-10-04T01:53:07;101684.81;;;17.05;62.63
7264;BME280;3673;52.480;13.348;2022-10-04T01:55:36;101685.13;;;16.79;63.12
7264;BME280;3673;52.480;13.348;2022-10-04T01:58:10;101685.72;;;17.04;62.38
7264;BME280;3673;52.480;13.348;2022-10-04T02:00:45;101686.91;;;16.80;62.92
7264;BME280;3673;52.480;13.348;2022-10-04T02:03:19;101678.31;;;16.60;63.53
7264;BME280;3673;52.480;13.348;2022-10-04T02:05:51;101689.50;;;16.84;62.60
7264;BME280;3673;52.480;13.348;2022-10-04T02:08:26;101685.00;;;16.91;62.93
7264;BME280;3673;52.480;13.348;2022-10-04T02:10:54;101678.94;;;16.83;62.89
7264;BME280;3673;52.480;13.348;2022-10-04T02:13:24;101666.50;;;16.91;62.46
7264;BME280;3673;52.480;13.348;2022-10-04T02:15:55;101669.91;;;16.99;62.58
7264;BME280;3673;52.480;13.348;2022-10-04T02:18:24;101661.81;;;17.14;61.74
7264;BME280;3673;52.480;13.348;2022-10-04T02:20:53;101676.28;;;16.84;62.33
7264;BME280;3673;52.480;13.348;2022-10-04T02:23:23;101668.50;;;16.69;63.10
7264;BME280;3673;52.480;13.348;2022-10-04T02:25:51;101671.84;;;16.86;62.13
7264;BME280;3673;52.480;13.348;2022-10-04T02:28:18;101684.25;;;16.80;61.87
7264;BME280;3673;52.480;13.348;2022-10-04T02:30:47;101685.06;;;16.85;61.88
7264;BME280;3673;52.480;13.348;2022-10-04T02:33:29;101682.63;;;16.65;62.29
7264;BME280;3673;52.480;13.348;2022-10-04T02:35:57;101676.47;;;16.68;62.03
7264;BME280;3673;52.480;13.348;2022-10-04T02:38:32;101679.84;;;16.79;61.85
7264;BME280;3673;52.480;13.348;2022-10-04T02:41:05;101676.22;;;16.89;61.45
7264;BME280;3673;52.480;13.348;2022-10-04T02:43:42;101671.75;;;16.94;61.40
7264;BME280;3673;52.480;13.348;2022-10-04T02:46:16;101669.47;;;16.64;62.56
7264;BME280;3673;52.480;13.348;2022-10-04T02:48:48;101672.06;;;16.65;62.76
7264;BME280;3673;52.480;13.348;2022-10-04T02:51:22;101655.53;;;16.45;63.42
7264;BME280;3673;52.480;13.348;2022-10-04T02:54:00;101668.72;;;16.46;64.18
7264;BME280;3673;52.480;13.348;2022-10-04T02:56:28;101668.69;;;16.51;63.84
7264;BME280;3673;52.480;13.348;2022-10-04T02:59:00;101660.81;;;16.45;63.88
7264;BME280;3673;52.480;13.348;2022-10-04T03:01:41;101653.59;;;16.64;63.28
7264;BME280;3673;52.480;13.348;2022-10-04T03:04:11;101661.34;;;16.79;63.38
7264;BME280;3673;52.480;13.348;2022-10-04T03:06:42;101664.31;;;16.47;64.02
7264;BME280;3673;52.480;13.348;2022-10-04T03:09:13;101660.78;;;16.49;63.95
7264;BME280;3673;52.480;13.348;2022-10-04T03:11:41;101664.19;;;16.64;63.98
7264;BME280;3673;52.480;13.348;2022-10-04T03:14:11;101664.03;;;16.76;63.47
7264;BME280;3673;52.480;13.348;2022-10-04T03:16:42;101658.97;;;16.56;63.83
7264;BME280;3673;52.480;13.348;2022-10-04T03:19:11;101659.91;;;16.44;64.09
7264;BME280;3673;52.480;13.348;2022-10-04T03:21:42;101664.50;;;16.29;65.40
7264;BME280;3673;52.480;13.348;2022-10-04T03:24:19;101660.94;;;16.34;64.51
7264;BME280;3673;52.480;13.348;2022-10-04T03:26:48;101665.38;;;16.29;64.85
7264;BME280;3673;52.480;13.348;2022-10-04T03:29:17;101661.03;;;16.22;65.03
7264;BME280;3673;52.480;13.348;2022-10-04T03:31:47;101672.25;;;16.45;64.40
7264;BME280;3673;52.480;13.348;2022-10-04T03:34:16;101669.59;;;16.47;64.23
7264;BME280;3673;52.480;13.348;2022-10-04T03:36:45;101660.94;;;16.34;64.61
7264;BME280;3673;52.480;13.348;2022-10-04T03:39:19;101665.25;;;16.41;64.16
7264;BME280;3673;52.480;13.348;2022-10-04T03:41:51;101667.34;;;16.08;64.75
7264;BME280;3673;52.480;13.348;2022-10-04T03:44:19;101663.84;;;16.04;64.88
7264;BME280;3673;52.480;13.348;2022-10-04T03:46:47;101663.06;;;15.93;64.97
7264;BME280;3673;52.480;13.348;2022-10-04T03:49:17;101664.63;;;16.17;64.65
7264;BME280;3673;52.480;13.348;2022-10-04T03:51:50;101666.63;;;15.87;65.25
7264;BME280;3673;52.480;13.348;2022-10-04T03:54:22;101678.69;;;16.17;64.64
7264;BME280;3673;52.480;13.348;2022-10-04T03:56:52;101667.00;;;16.42;63.65
7264;BME280;3673;52.480;13.348;2022-10-04T03:59:20;101662.75;;;16.25;63.71
7264;BME280;3673;52.480;13.348;2022-10-04T04:01:58;101671.47;;;16.36;63.61
7264;BME280;3673;52.480;13.348;2022-10-04T04:04:35;101664.44;;;16.35;63.45
7264;BME280;3673;52.480;13.348;2022-10-04T04:07:11;101673.56;;;15.99;64.61
7264;BME280;3673;52.480;13.348;2022-10-04T04:09:43;101666.28;;;16.25;64.00
7264;BME280;3673;52.480;13.348;2022-10-04T04:12:16;101672.41;;;16.29;63.79
7264;BME280;3673;52.480;13.348;2022-10-04T04:14:47;101684.91;;;16.09;64.15
7264;BME280;3673;52.480;13.348;2022-10-04T04:17:33;101689.31;;;16.08;63.89
7264;BME280;3673;52.480;13.348;2022-10-04T04:20:06;101680.53;;;16.06;63.85
7264;BME280;3673;52.480;13.348;2022-10-04T04:22:38;101681.31;;;16.20;63.39
7264;BME280;3673;52.480;13.348;2022-10-04T04:25:14;101685.53;;;16.39;62.61
7264;BME280;3673;52.480;13.348;2022-10-04T04:27:43;101681.00;;;16.52;62.43
7264;BME280;3673;52.480;13.348;2022-10-04T04:30:16;101686.34;;;16.46;62.77
7264;BME280;3673;52.480;13.348;2022-10-04T04:32:47;101682.88;;;16.38;62.99
7264;BME280;3673;52.480;13.348;2022-10-04T04:35:29;101684.66;;;16.40;62.60
7264;BME280;3673;52.480;13.348;2022-10-04T04:38:12;101677.78;;;16.20;63.27
7264;BME280;3673;52.480;13.348;2022-10-04T04:40:42;101675.91;;;16.32;62.93
7264;BME280;3673;52.480;13.348;2022-10-04T04:43:15;101680.41;;;16.24;62.88
7264;BME280;3673;52.480;13.348;2022-10-04T04:45:44;101675.13;;;16.24;62.32
7264;BME280;3673;52.480;13.348;2022-10-04T04:48:15;101683.13;;;16.12;62.83
7264;BME280;3673;52.480;13.348;2022-10-04T04:50:48;101681.38;;;16.13;63.05
7264;BME280;3673;52.480;13.348;2022-10-04T04:53:21;101686.38;;;16.41;62.35
7264;BME280;3673;52.480;13.348;2022-10-04T04:55:53;101696.16;;;16.33;62.47
7264;BME280;3673;52.480;13.348;2022-10-04T04:58:24;101690.81;;;16.41;62.47
7264;BME280;3673;52.480;13.348;2022-10-04T05:00:55;101684.84;;;16.21;63.00
7264;BME280;3673;52.480;13.348;2022-10-04T05:03:24;101681.28;;;16.23;63.04
7264;BME280;3673;52.480;13.348;2022-10-04T05:05:52;101682.94;;;16.32;62.89
7264;BME280;3673;52.480;13.348;2022-10-04T05:08:21;101693.63;;;16.20;63.00
7264;BME280;3673;52.480;13.348;2022-10-04T05:10:57;101690.81;;;16.39;62.33
7264;BME280;3673;52.480;13.348;2022-10-04T05:13:37;101684.94;;;16.07;63.49
7264;BME280;3673;52.480;13.348;2022-10-04T05:16:10;101691.81;;;16.25;62.58
7264;BME280;3673;52.480;13.348;2022-10-04T05:18:40;101682.97;;;16.29;62.11
7264;BME280;3673;52.480;13.348;2022-10-04T05:21:11;101676.84;;;16.27;62.53
7264;BME280;3673;52.480;13.348;2022-10-04T05:23:39;101691.56;;;16.54;61.65
7264;BME280;3673;52.480;13.348;2022-10-04T05:26:11;101689.84;;;16.45;61.16
7264;BME280;3673;52.480;13.348;2022-10-04T05:28:39;101700.44;;;16.46;61.12
7264;BME280;3673;52.480;13.348;2022-10-04T05:31:23;101702.22;;;16.43;60.80
7264;BME280;3673;52.480;13.348;2022-10-04T05:33:57;101699.69;;;16.34;61.33
7264;BME280;3673;52.480;13.348;2022-10-04T05:36:43;101695.88;;;16.64;61.06
7264;BME280;3673;52.480;13.348;2022-10-04T05:39:21;101688.88;;;16.60;61.12
7264;BME280;3673;52.480;13.348;2022-10-04T05:41:59;101698.50;;;16.65;60.69
7264;BME280;3673;52.480;13.348;2022-10-04T05:44:30;101683.22;;;16.93;60.19
7264;BME280;3673;52.480;13.348;2022-10-04T05:46:59;101692.69;;;17.11;60.06
7264;BME280;3673;52.480;13.348;2022-10-04T05:49:32;101700.41;;;16.48;61.52
7264;BME280;3673;52.480;13.348;2022-10-04T05:52:05;101708.31;;;16.51;62.32
7264;BME280;3673;52.480;13.348;2022-10-04T05:54:38;101714.50;;;16.45;62.84
7264;BME280;3673;52.480;13.348;2022-10-04T05:57:24;101712.63;;;16.64;62.14
7264;BME280;3673;52.480;13.348;2022-10-04T06:00:07;101714.44;;;16.56;62.20
7264;BME280;3673;52.480;13.348;2022-10-04T06:03:05;101711.56;;;16.80;61.83
7264;BME280;3673;52.480;13.348;2022-10-04T06:05:46;101707.19;;;16.78;61.41
7264;BME280;3673;52.480;13.348;2022-10-04T06:08:24;101718.47;;;16.93;61.12
7264;BME280;3673;52.480;13.348;2022-10-04T06:11:35;101711.81;;;16.56;61.37
7264;BME280;3673;52.480;13.348;2022-10-04T06:14:49;101710.97;;;16.51;61.15
7264;BME280;3673;52.480;13.348;2022-10-04T06:17:44;101710.13;;;16.44;61.49
7264;BME280;3673;52.480;13.348;2022-10-04T06:20:51;101710.97;;;16.48;61.54
7264;BME280;3673;52.480;13.348;2022-10-04T06:23:20;101710.50;;;16.95;60.38
7264;BME280;3673;52.480;13.348;2022-10-04T06:25:52;101711.53;;;16.83;60.94
7264;BME280;3673;52.480;13.348;2022-10-04T06:28:26;101710.09;;;16.51;61.70
7264;BME280;3673;52.480;13.348;2022-10-04T06:34:21;101720.97;;;16.13;62.88
7264;BME280;3673;52.480;13.348;2022-10-04T06:37:17;101726.81;;;16.51;62.17
7264;BME280;3673;52.480;13.348;2022-10-04T06:40:02;101724.34;;;16.30;62.78
7264;BME280;3673;52.480;13.348;2022-10-04T06:45:59;101719.72;;;16.52;61.13
7264;BME280;3673;52.480;13.348;2022-10-04T06:48:55;101726.25;;;17.06;60.05
7264;BME280;3673;52.480;13.348;2022-10-04T06:51:44;101731.41;;;17.15;59.97
7264;BME280;3673;52.480;13.348;2022-10-04T06:54:36;101735.38;;;16.77;60.46
7264;BME280;3673;52.480;13.348;2022-10-04T06:57:32;101739.13;;;16.57;61.95
7264;BME280;3673;52.480;13.348;2022-10-04T07:00:12;101740.34;;;17.06;60.44
7264;BME280;3673;52.480;13.348;2022-10-04T07:02:45;101735.13;;;17.00;60.56
7264;BME280;3673;52.480;13.348;2022-10-04T07:05:23;101741.03;;;17.23;59.98
7264;BME280;3673;52.480;13.348;2022-10-04T07:08:08;101740.84;;;16.59;61.58
7264;BME280;3673;52.480;13.348;2022-10-04T07:10:47;101740.50;;;16.92;61.27
7264;BME280;3673;52.480;13.348;2022-10-04T07:13:36;101750.88;;;17.11;60.76
7264;BME280;3673;52.480;13.348;2022-10-04T07:16:18;101749.72;;;17.34;60.19
7264;BME280;3673;52.480;13.348;2022-10-04T07:18:58;101746.34;;;17.19;60.04
7264;BME280;3673;52.480;13.348;2022-10-04T07:21:38;101751.75;;;17.11;60.37
7264;BME280;3673;52.480;13.348;2022-10-04T07:24:11;101748.69;;;17.43;59.84
7264;BME280;3673;52.480;13.348;2022-10-04T07:26:48;101755.63;;;17.51;59.62
7264;BME280;3673;52.480;13.348;2022-10-04T07:29:20;101760.22;;;17.39;59.96
7264;BME280;3673;52.480;13.348;2022-10-04T07:32:00;101765.06;;;17.02;61.10
7264;BME280;3673;52.480;13.348;2022-10-04T07:34:30;101768.53;;;17.07;61.15
7264;BME280;3673;52.480;13.348;2022-10-04T07:37:06;101769.22;;;17.23;61.10
7264;BME280;3673;52.480;13.348;2022-10-04T07:39:43;101771.06;;;17.18;60.81
7264;BME280;3673;52.480;13.348;2022-10-04T07:42:21;101761.72;;;16.85;62.05
7264;BME280;3673;52.480;13.348;2022-10-04T07:45:09;101767.22;;;17.41;60.53
7264;BME280;3673;52.480;13.348;2022-10-04T07:47:38;101769.78;;;17.50;59.36
7264;BME280;3673;52.480;13.348;2022-10-04T07:50:21;101765.53;;;17.37;60.93
7264;BME280;3673;52.480;13.348;2022-10-04T07:52:56;101773.44;;;17.39;60.38
7264;BME280;3673;52.480;13.348;2022-10-04T07:55:31;101773.97;;;16.92;61.70
7264;BME280;3673;52.480;13.348;2022-10-04T07:58:17;101778.19;;;17.08;61.28
7264;BME280;3673;52.480;13.348;2022-10-04T08:00:52;101779.94;;;17.14;61.08
7264;BME280;3673;52.480;13.348;2022-10-04T08:06:17;101791.59;;;16.93;61.32
7264;BME280;3673;52.480;13.348;2022-10-04T08:09:15;101777.84;;;17.38;60.62
7264;BME280;3673;52.480;13.348;2022-10-04T08:11:53;101795.56;;;17.32;60.56
7264;BME280;3673;52.480;13.348;2022-10-04T08:14:37;101792.78;;;17.42;60.22
7264;BME280;3673;52.480;13.348;2022-10-04T08:17:23;101795.47;;;17.39;60.52
7264;BME280;3673;52.480;13.348;2022-10-04T08:20:01;101801.69;;;17.35;60.39
7264;BME280;3673;52.480;13.348;2022-10-04T08:22:51;101804.34;;;17.37;59.70
7264;BME280;3673;52.480;13.348;2022-10-04T08:25:27;101798.28;;;17.97;58.36
7264;BME280;3673;52.480;13.348;2022-10-04T08:28:03;101807.00;;;17.35;59.82
7264;BME280;3673;52.480;13.348;2022-10-04T08:31:10;101798.94;;;17.47;59.87
7264;BME280;3673;52.480;13.348;2022-10-04T08:33:53;101800.78;;;17.38;59.86
7264;BME280;3673;52.480;13.348;2022-10-04T08:36:39;101800.06;;;17.95;58.28
7264;BME280;3673;52.480;13.348;2022-10-04T08:39:27;101810.13;;;17.69;58.81
7264;BME280;3673;52.480;13.348;2022-10-04T08:45:58;101806.44;;;17.82;58.60
7264;BME280;3673;52.480;13.348;2022-10-04T08:49:10;101798.94;;;18.12;57.55
7264;BME280;3673;52.480;13.348;2022-10-04T08:52:28;101801.88;;;18.48;56.63
7264;BME280;3673;52.480;13.348;2022-10-04T08:55:54;101807.56;;;18.79;55.82
7264;BME280;3673;52.480;13.348;2022-10-04T08:59:10;101805.16;;;18.11;56.36
7264;BME280;3673;52.480;13.348;2022-10-04T09:01:57;101798.34;;;17.93;57.30
7264;BME280;3673;52.480;13.348;2022-10-04T09:04:53;101794.66;;;18.61;55.93
7264;BME280;3673;52.480;13.348;2022-10-04T09:07:57;101793.88;;;19.03;54.60
7264;BME280;3673;52.480;13.348;2022-10-04T09:10:47;101798.41;;;18.45;55.61
7264;BME280;3673;52.480;13.348;2022-10-04T09:13:39;101802.06;;;18.38;55.95
7264;BME280;3673;52.480;13.348;2022-10-04T09:16:17;101796.47;;;19.07;54.79
7264;BME280;3673;52.480;13.348;2022-10-04T09:18:51;101800.31;;;19.35;53.86
7264;BME280;3673;52.480;13.348;2022-10-04T09:21:35;101799.47;;;19.34;53.61
7264;BME280;3673;52.480;13.348;2022-10-04T09:24:48;101803.22;;;19.67;52.26
7264;BME280;3673;52.480;13.348;2022-10-04T09:27:44;101799.59;;;19.71;52.04
7264;BME280;3673;52.480;13.348;2022-10-04T09:30:19;101804.34;;;19.56;52.14
7264;BME280;3673;52.480;13.348;2022-10-04T09:33:15;101807.84;;;19.12;53.50
7264;BME280;3673;52.480;13.348;2022-10-04T09:36:10;101809.19;;;19.34;52.91
7264;BME280;3673;52.480;13.348;2022-10-04T09:39:12;101802.44;;;19.18;53.36
7264;BME280;3673;52.480;13.348;2022-10-04T09:45:54;101800.66;;;19.63;52.61
7264;BME280;3673;52.480;13.348;2022-10-04T09:48:34;101794.72;;;19.91;51.96
7264;BME280;3673;52.480;13.348;2022-10-04T09:51:29;101790.19;;;19.95;51.99
7264;BME280;3673;52.480;13.348;2022-10-04T09:57:14;101800.31;;;19.35;53.24
7264;BME280;3673;52.480;13.348;2022-10-04T10:00:14;101790.31;;;19.90;52.50
7264;BME280;3673;52.480;13.348;2022-10-04T10:03:33;101786.00;;;20.59;50.95
7264;BME280;3673;52.480;13.348;2022-10-04T10:06:23;101778.34;;;20.48;51.19
7264;BME280;3673;52.480;13.348;2022-10-04T10:09:09;101791.34;;;20.22;52.05
7264;BME280;3673;52.480;13.348;2022-10-04T10:11:47;101784.38;;;20.16;51.31
7264;BME280;3673;52.480;13.348;2022-10-04T10:15:10;101784.84;;;20.35;51.28
7264;BME280;3673;52.480;13.348;2022-10-04T10:17:49;101784.56;;;20.45;50.44
7264;BME280;3673;52.480;13.348;2022-10-04T10:20:45;101788.50;;;20.31;51.05
7264;BME280;3673;52.480;13.348;2022-10-04T10:23:50;101789.91;;;20.79;49.65
7264;BME280;3673;52.480;13.348;2022-10-04T10:30:11;101787.72;;;20.95;48.96
7264;BME280;3673;52.480;13.348;2022-10-04T10:33:23;101792.97;;;20.29;50.71
7264;BME280;3673;52.480;13.348;2022-10-04T10:36:17;101788.66;;;20.23;51.06
7264;BME280;3673;52.480;13.348;2022-10-04T10:39:20;101790.44;;;20.92;49.46
7264;BME280;3673;52.480;13.348;2022-10-04T10:42:18;101795.13;;;20.84;49.41
7264;BME280;3673;52.480;13.348;2022-10-04T10:45:14;101794.03;;;21.25;48.93
7264;BME280;3673;52.480;13.348;2022-10-04T10:47:52;101790.09;;;21.05;48.91
7264;BME280;3673;52.480;13.348;2022-10-04T10:50:53;101788.72;;;20.91;49.35
7264;BME280;3673;52.480;13.348;2022-10-04T10:53:56;101794.72;;;20.30;50.72
7264;BME280;3673;52.480;13.348;2022-10-04T10:57:02;101775.38;;;20.23;51.39
7264;BME280;3673;52.480;13.348;2022-10-04T11:06:33;101792.72;;;21.07;49.17
7264;BME280;3673;52.480;13.348;2022-10-04T11:09:51;101790.19;;;21.35;48.25
7264;BME280;3673;52.480;13.348;2022-10-04T11:13:02;101781.25;;;21.67;48.03
7264;BME280;3673;52.480;13.348;2022-10-04T11:15:56;101784.00;;;21.64;47.76
7264;BME280;3673;52.480;13.348;2022-10-04T11:22:50;101803.81;;;20.57;50.32
7264;BME280;3673;52.480;13.348;2022-10-04T11:26:07;101799.13;;;21.00;49.53
7264;BME280;3673;52.480;13.348;2022-10-04T11:28:48;101789.91;;;20.79;49.84
7264;BME280;3673;52.480;13.348;2022-10-04T11:31:50;101783.78;;;21.11;49.05
7264;BME280;3673;52.480;13.348;2022-10-04T11:38:00;101770.13;;;22.11;45.45
7264;BME280;3673;52.480;13.348;2022-10-04T11:40:50;101772.25;;;21.71;46.81
7264;BME280;3673;52.480;13.348;2022-10-04T11:43:41;101773.63;;;21.54;46.92
7264;BME280;3673;52.480;13.348;2022-10-04T11:46:26;101767.28;;;21.88;45.84
7264;BME280;3673;52.480;13.348;2022-10-04T11:49:14;101765.34;;;21.93;45.96
7264;BME280;3673;52.480;13.348;2022-10-04T11:55:46;101758.91;;;22.00;45.38
7264;BME280;3673;52.480;13.348;2022-10-04T11:58:29;101748.88;;;21.79;46.07
7264;BME280;3673;52.480;13.348;2022-10-04T12:07:52;101751.34;;;21.57;47.07
7264;BME280;3673;52.480;13.348;2022-10-04T12:10:26;101753.72;;;21.95;46.20
7264;BME280;3673;52.480;13.348;2022-10-04T12:13:34;101754.25;;;22.59;44.62
7264;BME280;3673;52.480;13.348;2022-10-04T12:16:53;101749.19;;;23.50;42.62
7264;BME280;3673;52.480;13.348;2022-10-04T12:19:50;101744.63;;;24.83;39.48
7264;BME280;3673;52.480;13.348;2022-10-04T12:22:44;101741.13;;;25.40;38.14
7264;BME280;3673;52.480;13.348;2022-10-04T12:25:48;101735.72;;;25.41;37.37
7264;BME280;3673;52.480;13.348;2022-10-04T12:29:03;101737.28;;;24.46;39.03
7264;BME280;3673;52.480;13.348;2022-10-04T12:31:41;101737.22;;;24.27;39.65
7264;BME280;3673;52.480;13.348;2022-10-04T12:34:16;101737.19;;;23.84;40.33
7264;BME280;3673;52.480;13.348;2022-10-04T12:37:08;101730.03;;;24.06;39.95
7264;BME280;3673;52.480;13.348;2022-10-04T12:40:06;101746.44;;;25.02;38.60
7264;BME280;3673;52.480;13.348;2022-10-04T12:42:45;101735.88;;;25.76;37.02
7264;BME280;3673;52.480;13.348;2022-10-04T12:45:36;101729.31;;;26.00;36.61
7264;BME280;3673;52.480;13.348;2022-10-04T12:48:25;101730.72;;;25.52;36.47
7264;BME280;3673;52.480;13.348;2022-10-04T12:51:08;101735.03;;;24.57;37.93
7264;BME280;3673;52.480;13.348;2022-10-04T12:53:48;101736.19;;;24.51;38.42
7264;BME280;3673;52.480;13.348;2022-10-04T12:56:28;101726.81;;;24.41;38.87
7264;BME280;3673;52.480;13.348;2022-10-04T12:59:18;101723.19;;;24.63;38.96
7264;BME280;3673;52.480;13.348;2022-10-04T13:02:00;101735.97;;;24.56;39.00
7264;BME280;3673;52.480;13.348;2022-10-04T13:04:35;101735.13;;;24.96;38.35
7264;BME280;3673;52.480;13.348;2022-10-04T13:07:28;101727.00;;;24.77;38.10
7264;BME280;3673;52.480;13.348;2022-10-04T13:13:30;101729.66;;;24.37;38.23
7264;BME280;3673;52.480;13.348;2022-10-04T13:16:10;101727.34;;;24.49;37.59
7264;BME280;3673;52.480;13.348;2022-10-04T13:18:46;101720.03;;;23.68;38.71
7264;BME280;3673;52.480;13.348;2022-10-04T13:21:21;101709.91;;;23.29;39.82
7264;BME280;3673;52.480;13.348;2022-10-04T13:24:01;101708.22;;;23.73;38.93
7264;BME280;3673;52.480;13.348;2022-10-04T13:26:40;101701.56;;;23.62;38.91
7264;BME280;3673;52.480;13.348;2022-10-04T13:29:21;101695.09;;;23.89;38.61
7264;BME280;3673;52.480;13.348;2022-10-04T13:31:55;101701.50;;;23.40;39.59
7264;BME280;3673;52.480;13.348;2022-10-04T13:34:32;101696.59;;;22.81;40.97
7264;BME280;3673;52.480;13.348;2022-10-04T13:37:26;101699.84;;;23.36;40.53
7264;BME280;3673;52.480;13.348;2022-10-04T13:40:19;101666.50;;;23.91;39.07
7264;BME280;3673;52.480;13.348;2022-10-04T13:43:14;101689.00;;;24.69;37.75
7264;BME280;3673;52.480;13.348;2022-10-04T13:46:00;101686.47;;;25.44;36.40
7264;BME280;3673;52.480;13.348;2022-10-04T13:48:41;101673.59;;;26.58;34.76
7264;BME280;3673;52.480;13.348;2022-10-04T13:51:43;101674.63;;;26.21;34.49
7264;BME280;3673;52.480;13.348;2022-10-04T13:54:22;101677.03;;;24.98;36.94
7264;BME280;3673;52.480;13.348;2022-10-04T13:57:16;101671.94;;;24.09;38.38
7264;BME280;3673;52.480;13.348;2022-10-04T13:59:50;101666.91;;;23.82;38.85
7264;BME280;3673;52.480;13.348;2022-10-04T14:03:02;101670.59;;;24.21;38.62
7264;BME280;3673;52.480;13.348;2022-10-04T14:09:27;101657.06;;;23.82;38.79
7264;BME280;3673;52.480;13.348;2022-10-04T14:13:00;101657.88;;;23.84;38.75
7264;BME280;3673;52.480;13.348;2022-10-04T14:19:42;101661.78;;;26.45;34.29
7264;BME280;3673;52.480;13.348;2022-10-04T14:26:12;101643.56;;;25.63;35.80
7264;BME280;3673;52.480;13.348;2022-10-04T14:29:13;101642.53;;;26.70;34.00
7264;BME280;3673;52.480;13.348;2022-10-04T14:32:18;101631.00;;;26.85;33.01
7264;BME280;3673;52.480;13.348;2022-10-04T14:35:09;101623.66;;;26.38;33.85
7264;BME280;3673;52.480;13.348;2022-10-04T14:38:22;101640.94;;;26.66;33.40
7264;BME280;3673;52.480;13.348;2022-10-04T14:44:55;101638.41;;;24.63;37.20
7264;BME280;3673;52.480;13.348;2022-10-04T14:48:01;101629.88;;;24.15;38.14
7264;BME280;3673;52.480;13.348;2022-10-04T14:50:53;101632.81;;;23.87;39.25
7264;BME280;3673;52.480;13.348;2022-10-04T14:53:31;101619.16;;;23.73;39.50
7264;BME280;3673;52.480;13.348;2022-10-04T14:56:26;101619.59;;;23.62;40.07
7264;BME280;3673;52.480;13.348;2022-10-04T14:59:14;101615.66;;;23.04;40.77
7264;BME280;3673;52.480;13.348;2022-10-04T15:02:03;101612.03;;;23.51;40.06
7264;BME280;3673;52.480;13.348;2022-10-04T15:04:56;101610.84;;;23.14;40.83
7264;BME280;3673;52.480;13.348;2022-10-04T15:07:30;101607.81;;;22.99;41.35
7264;BME280;3673;52.480;13.348;2022-10-04T15:10:06;101599.41;;;22.87;41.53
7264;BME280;3673;52.480;13.348;2022-10-04T15:12:52;101588.38;;;22.73;41.85
7264;BME280;3673;52.480;13.348;2022-10-04T15:15:37;101603.44;;;22.50;42.64
7264;BME280;3673;52.480;13.348;2022-10-04T15:18:25;101602.66;;;22.47;43.02
7264;BME280;3673;52.480;13.348;2022-10-04T15:20:58;101595.16;;;22.33;43.27
7264;BME280;3673;52.480;13.348;2022-10-04T15:23:33;101592.22;;;22.41;43.30
7264;BME280;3673;52.480;13.348;2022-10-04T15:29:04;101608.91;;;21.69;44.56
7264;BME280;3673;52.480;13.348;2022-10-04T15:31:49;101595.38;;;22.02;44.09